sensor_id;sensor_type;location;lat;lon;timestamp;pressure;altitude;pressure_sealevel;temperature;humidity
47330;BME280;33060;50.178;7.570;2023-09-18T00:02:15;96295.81;;;21.07;91.04
47330;BME280;33060;50.178;7.570;2023-09-18T00:04:41;96281.06;;;21.17;90.52
47330;BME280;33060;50.178;7.570;2023-09-18T00:07:08;96282.69;;;21.12;90.32
47330;BME280;33060;50.178;7.570;2023-09-18T00:09:37;96288.19;;;21.10;90.11
47330;BME280;33060;50.178;7.570;2023-09-18T00:12:04;96284.38;;;20.98;90.96
47330;BME280;33060;50.178;7.570;2023-09-18T00:14:31;96280.03;;;20.97;91.97
47330;BME280;33060;50.178;7.570;2023-09-18T00:16:58;96271.41;;;21.02;91.36
47330;BME280;33060;50.178;7.570;2023-09-18T00:19:25;96261.59;;;20.87;92.27
47330;BME280;33060;50.178;7.570;2023-09-18T00:21:52;96256.25;;;20.87;91.64
47330;BME280;33060;50.178;7.570;2023-09-18T00:24:19;96259.44;;;20.76;93.52
47330;BME280;33060;50.178;7.570;2023-09-18T00:26:47;96262.88;;;20.70;94.07
47330;BME280;33060;50.178;7.570;2023-09-18T00:29:14;96254.50;;;20.80;92.39
47330;BME280;33060;50.178;7.570;2023-09-18T00:31:41;96242.56;;;20.82;91.69
47330;BME280;33060;50.178;7.570;2023-09-18T00:34:09;96242.31;;;20.77;92.21
47330;BME280;33060;50.178;7.570;2023-09-18T00:36:35;96253.09;;;20.84;91.31
47330;BME280;33060;50.178;7.570;2023-09-18T00:39:02;96249.91;;;20.74;93.55
47330;BME280;33060;50.178;7.570;2023-09-18T00:41:30;96238.16;;;20.75;92.84
47330;BME280;33060;50.178;7.570;2023-09-18T00:43:56;96229.16;;;20.82;91.81
47330;BME280;33060;50.178;7.570;2023-09-18T00:46:23;96229.47;;;20.73;92.38
47330;BME280;33060;50.178;7.570;2023-09-18T00:48:50;96231.34;;;20.72;92.42
47330;BME280;33060;50.178;7.570;2023-09-18T00:51:17;96233.75;;;20.67;93.29
47330;BME280;33060;50.178;7.570;2023-09-18T00:53:45;96231.47;;;20.64;93.61
47330;BME280;33060;50.178;7.570;2023-09-18T00:56:15;96223.38;;;20.79;91.56
47330;BME280;33060;50.178;7.570;2023-09-18T00:58:42;96221.75;;;20.84;91.12
47330;BME280;33060;50.178;7.570;2023-09-18T01:01:09;96227.19;;;20.91;92.37
47330;BME280;33060;50.178;7.570;2023-09-18T01:03:37;96233.78;;;20.88;91.51
47330;BME280;33060;50.178;7.570;2023-09-18T01:06:04;96229.56;;;20.79;92.85
47330;BME280;33060;50.178;7.570;2023-09-18T01:08:31;96246.47;;;20.80;93.09
47330;BME280;33060;50.178;7.570;2023-09-18T01:11:09;96246.53;;;20.86;92.02
47330;BME280;33060;50.178;7.570;2023-09-18T01:14:14;96246.78;;;20.92;91.42
47330;BME280;33060;50.178;7.570;2023-09-18T01:17:02;96254.19;;;20.89;91.19
47330;BME280;33060;50.178;7.570;2023-09-18T01:19:46;96250.78;;;21.02;90.61
47330;BME280;33060;50.178;7.570;2023-09-18T01:22:14;96250.50;;;21.12;89.63
47330;BME280;33060;50.178;7.570;2023-09-18T01:24:44;96255.78;;;21.05;90.06
47330;BME280;33060;50.178;7.570;2023-09-18T01:27:12;96304.28;;;21.10;89.25
47330;BME280;33060;50.178;7.570;2023-09-18T01:29:39;96328.63;;;21.09;90.83
47330;BME280;33060;50.178;7.570;2023-09-18T01:32:06;96342.34;;;20.99;90.26
47330;BME280;33060;50.178;7.570;2023-09-18T01:34:36;96349.19;;;21.02;89.17
47330;BME280;33060;50.178;7.570;2023-09-18T01:37:04;96337.47;;;20.52;100.00
47330;BME280;33060;50.178;7.570;2023-09-18T01:39:32;96327.56;;;19.79;100.00
47330;BME280;33060;50.178;7.570;2023-09-18T01:42:03;96328.84;;;19.45;100.00
47330;BME280;33060;50.178;7.570;2023-09-18T01:44:34;96331.69;;;19.43;100.00
47330;BME280;33060;50.178;7.570;2023-09-18T01:47:06;96326.41;;;19.35;100.00
47330;BME280;33060;50.178;7.570;2023-09-18T01:49:37;96327.16;;;19.29;100.00
47330;BME280;33060;50.178;7.570;2023-09-18T01:52:05;96322.38;;;19.16;100.00
47330;BME280;33060;50.178;7.570;2023-09-18T01:54:33;96312.75;;;19.07;100.00
47330;BME280;33060;50.178;7.570;2023-09-18T01:57:01;96288.53;;;19.09;100.00
47330;BME280;33060;50.178;7.570;2023-09-18T01:59:28;96281.88;;;19.05;100.00
47330;BME280;33060;50.178;7.570;2023-09-18T02:01:56;96273.75;;;18.98;100.00
47330;BME280;33060;50.178;7.570;2023-09-18T02:04:23;96244.72;;;18.95;100.00
47330;BME280;33060;50.178;7.570;2023-09-18T02:07:10;96229.50;;;18.96;100.00
47330;BME280;33060;50.178;7.570;2023-09-18T02:09:37;96218.25;;;19.00;100.00
47330;BME280;33060;50.178;7.570;2023-09-18T02:12:04;96207.38;;;19.02;100.00
47330;BME280;33060;50.178;7.570;2023-09-18T02:14:30;96194.84;;;19.02;100.00
47330;BME280;33060;50.178;7.570;2023-09-18T02:16:58;96197.72;;;19.01;100.00
47330;BME280;33060;50.178;7.570;2023-09-18T02:19:25;96185.56;;;18.98;100.00
47330;BME280;33060;50.178;7.570;2023-09-18T02:21:56;96180.84;;;19.00;100.00
47330;BME280;33060;50.178;7.570;2023-09-18T02:24:23;96184.91;;;18.96;100.00
47330;BME280;33060;50.178;7.570;2023-09-18T02:26:50;96176.88;;;18.96;100.00
47330;BME280;33060;50.178;7.570;2023-09-18T02:29:16;96183.25;;;18.95;100.00
47330;BME280;33060;50.178;7.570;2023-09-18T02:31:43;96180.56;;;18.95;100.00
47330;BME280;33060;50.178;7.570;2023-09-18T02:34:10;96176.59;;;18.91;100.00
47330;BME280;33060;50.178;7.570;2023-09-18T02:36:37;96170.97;;;18.86;100.00
47330;BME280;33060;50.178;7.570;2023-09-18T02:39:04;96163.78;;;18.86;100.00
47330;BME280;33060;50.178;7.570;2023-09-18T02:41:31;96160.09;;;18.87;100.00
47330;BME280;33060;50.178;7.570;2023-09-18T02:43:58;96161.63;;;18.82;100.00
47330;BME280;33060;50.178;7.570;2023-09-18T02:46:24;96183.91;;;18.74;100.00
47330;BME280;33060;50.178;7.570;2023-09-18T02:48:51;96203.84;;;18.63;100.00
47330;BME280;33060;50.178;7.570;2023-09-18T02:51:18;96203.06;;;18.55;100.00
47330;BME280;33060;50.178;7.570;2023-09-18T02:53:45;96206.19;;;18.58;100.00
47330;BME280;33060;50.178;7.570;2023-09-18T02:56:12;96205.88;;;18.61;100.00
47330;BME280;33060;50.178;7.570;2023-09-18T02:58:39;96197.66;;;18.63;100.00
47330;BME280;33060;50.178;7.570;2023-09-18T03:01:07;96197.16;;;18.68;100.00
47330;BME280;33060;50.178;7.570;2023-09-18T03:03:35;96202.38;;;18.61;100.00
47330;BME280;33060;50.178;7.570;2023-09-18T03:06:03;96210.63;;;18.51;100.00
47330;BME280;33060;50.178;7.570;2023-09-18T03:08:30;96218.13;;;18.48;100.00
47330;BME280;33060;50.178;7.570;2023-09-18T03:10:58;96205.97;;;18.45;100.00
47330;BME280;33060;50.178;7.570;2023-09-18T03:13:29;96215.59;;;18.54;100.00
47330;BME280;33060;50.178;7.570;2023-09-18T03:15:56;96218.31;;;18.46;100.00
47330;BME280;33060;50.178;7.570;2023-09-18T03:18:24;96224.00;;;18.43;100.00
47330;BME280;33060;50.178;7.570;2023-09-18T03:20:51;96212.16;;;18.46;100.00
47330;BME280;33060;50.178;7.570;2023-09-18T03:23:19;96211.50;;;18.44;100.00
47330;BME280;33060;50.178;7.570;2023-09-18T03:25:45;96213.34;;;18.43;100.00
47330;BME280;33060;50.178;7.570;2023-09-18T03:28:17;96207.50;;;18.40;100.00
47330;BME280;33060;50.178;7.570;2023-09-18T03:30:44;96211.00;;;18.40;100.00
47330;BME280;33060;50.178;7.570;2023-09-18T03:33:11;96208.34;;;18.40;100.00
47330;BME280;33060;50.178;7.570;2023-09-18T03:35:51;96198.97;;;18.44;100.00
47330;BME280;33060;50.178;7.570;2023-09-18T03:38:24;96201.09;;;18.49;100.00
47330;BME280;33060;50.178;7.570;2023-09-18T03:40:51;96193.28;;;18.47;100.00
47330;BME280;33060;50.178;7.570;2023-09-18T03:43:19;96188.94;;;18.46;100.00
47330;BME280;33060;50.178;7.570;2023-09-18T03:45:46;96198.44;;;18.49;100.00
47330;BME280;33060;50.178;7.570;2023-09-18T03:48:13;96189.41;;;18.50;100.00
47330;BME280;33060;50.178;7.570;2023-09-18T03:50:40;96195.06;;;18.55;100.00
47330;BME280;33060;50.178;7.570;2023-09-18T03:53:08;96188.69;;;18.56;100.00
47330;BME280;33060;50.178;7.570;2023-09-18T03:55:34;96184.38;;;18.55;100.00
47330;BME280;33060;50.178;7.570;2023-09-18T03:58:01;96177.66;;;18.59;100.00
47330;BME280;33060;50.178;7.570;2023-09-18T04:00:28;96178.66;;;18.58;100.00
47330;BME280;33060;50.178;7.570;2023-09-18T04:02:54;96178.50;;;18.36;100.00
47330;BME280;33060;50.178;7.570;2023-09-18T04:05:21;96180.56;;;18.26;100.00
47330;BME280;33060;50.178;7.570;2023-09-18T04:07:50;96176.56;;;18.22;100.00
47330;BME280;33060;50.178;7.570;2023-09-18T04:10:18;96168.69;;;18.29;100.00
47330;BME280;33060;50.178;7.570;2023-09-18T04:12:50;96173.53;;;18.33;100.00
47330;BME280;33060;50.178;7.570;2023-09-18T04:15:17;96168.09;;;18.42;100.00
47330;BME280;33060;50.178;7.570;2023-09-18T04:17:46;96162.41;;;18.45;100.00
47330;BME280;33060;50.178;7.570;2023-09-18T04:20:13;96148.41;;;18.43;100.00
47330;BME280;33060;50.178;7.570;2023-09-18T04:22:43;96144.00;;;18.50;100.00
47330;BME280;33060;50.178;7.570;2023-09-18T04:25:11;96141.00;;;18.53;100.00
47330;BME280;33060;50.178;7.570;2023-09-18T04:27:38;96122.94;;;18.55;100.00
47330;BME280;33060;50.178;7.570;2023-09-18T04:30:06;96108.47;;;18.49;100.00
47330;BME280;33060;50.178;7.570;2023-09-18T04:32:37;96105.63;;;18.51;100.00
47330;BME280;33060;50.178;7.570;2023-09-18T04:35:05;96099.56;;;18.57;100.00
47330;BME280;33060;50.178;7.570;2023-09-18T04:37:37;96098.59;;;18.50;100.00
47330;BME280;33060;50.178;7.570;2023-09-18T04:40:06;96096.59;;;18.52;100.00
47330;BME280;33060;50.178;7.570;2023-09-18T04:42:38;96089.75;;;18.49;100.00
47330;BME280;33060;50.178;7.570;2023-09-18T04:45:06;96085.44;;;18.48;100.00
47330;BME280;33060;50.178;7.570;2023-09-18T04:47:34;96080.94;;;18.49;100.00
47330;BME280;33060;50.178;7.570;2023-09-18T04:50:02;96079.09;;;18.49;100.00
47330;BME280;33060;50.178;7.570;2023-09-18T04:52:36;96089.44;;;18.52;100.00
47330;BME280;33060;50.178;7.570;2023-09-18T04:55:03;96095.84;;;18.43;100.00
47330;BME280;33060;50.178;7.570;2023-09-18T04:57:32;96121.72;;;18.43;100.00
47330;BME280;33060;50.178;7.570;2023-09-18T05:00:01;96139.91;;;18.39;100.00
47330;BME280;33060;50.178;7.570;2023-09-18T05:02:43;96130.84;;;18.25;100.00
47330;BME280;33060;50.178;7.570;2023-09-18T05:05:11;96151.97;;;18.35;100.00
47330;BME280;33060;50.178;7.570;2023-09-18T05:07:38;96162.22;;;18.23;100.00
47330;BME280;33060;50.178;7.570;2023-09-18T05:10:05;96151.38;;;18.25;100.00
47330;BME280;33060;50.178;7.570;2023-09-18T05:12:32;96144.97;;;18.34;100.00
47330;BME280;33060;50.178;7.570;2023-09-18T05:14:59;96160.63;;;18.37;100.00
47330;BME280;33060;50.178;7.570;2023-09-18T05:17:40;96155.09;;;18.39;100.00
47330;BME280;33060;50.178;7.570;2023-09-18T05:20:11;96156.00;;;18.31;100.00
47330;BME280;33060;50.178;7.570;2023-09-18T05:22:42;96171.31;;;18.37;100.00
47330;BME280;33060;50.178;7.570;2023-09-18T05:25:10;96178.97;;;18.40;100.00
47330;BME280;33060;50.178;7.570;2023-09-18T05:27:38;96169.94;;;18.41;100.00
47330;BME280;33060;50.178;7.570;2023-09-18T05:30:15;96156.59;;;18.41;100.00
47330;BME280;33060;50.178;7.570;2023-09-18T05:32:43;96134.41;;;18.41;100.00
47330;BME280;33060;50.178;7.570;2023-09-18T05:35:10;96140.63;;;18.33;100.00
47330;BME280;33060;50.178;7.570;2023-09-18T05:37:41;96150.41;;;18.41;100.00
47330;BME280;33060;50.178;7.570;2023-09-18T05:40:10;96144.47;;;18.30;100.00
47330;BME280;33060;50.178;7.570;2023-09-18T05:42:38;96159.81;;;18.36;100.00
47330;BME280;33060;50.178;7.570;2023-09-18T05:45:06;96166.16;;;18.35;100.00
47330;BME280;33060;50.178;7.570;2023-09-18T05:47:33;96174.91;;;18.21;100.00
47330;BME280;33060;50.178;7.570;2023-09-18T05:50:02;96167.63;;;18.38;100.00
47330;BME280;33060;50.178;7.570;2023-09-18T05:52:30;96157.38;;;18.27;100.00
47330;BME280;33060;50.178;7.570;2023-09-18T05:54:57;96152.38;;;18.24;100.00
47330;BME280;33060;50.178;7.570;2023-09-18T05:57:23;96132.22;;;18.21;100.00
47330;BME280;33060;50.178;7.570;2023-09-18T05:59:50;96133.16;;;18.28;100.00
47330;BME280;33060;50.178;7.570;2023-09-18T06:02:17;96138.25;;;18.15;100.00
47330;BME280;33060;50.178;7.570;2023-09-18T06:04:44;96152.91;;;18.19;100.00
47330;BME280;33060;50.178;7.570;2023-09-18T06:07:11;96160.28;;;18.17;100.00
47330;BME280;33060;50.178;7.570;2023-09-18T06:09:39;96154.09;;;18.17;100.00
47330;BME280;33060;50.178;7.570;2023-09-18T06:12:06;96158.31;;;18.11;100.00
47330;BME280;33060;50.178;7.570;2023-09-18T06:14:33;96146.25;;;18.15;100.00
47330;BME280;33060;50.178;7.570;2023-09-18T06:17:01;96141.59;;;18.17;100.00
47330;BME280;33060;50.178;7.570;2023-09-18T06:19:28;96147.75;;;18.18;100.00
47330;BME280;33060;50.178;7.570;2023-09-18T06:21:55;96157.97;;;18.06;100.00
47330;BME280;33060;50.178;7.570;2023-09-18T06:24:21;96167.09;;;18.20;100.00
47330;BME280;33060;50.178;7.570;2023-09-18T06:26:48;96173.31;;;18.12;100.00
47330;BME280;33060;50.178;7.570;2023-09-18T06:29:15;96166.13;;;18.13;100.00
47330;BME280;33060;50.178;7.570;2023-09-18T06:31:41;96174.97;;;18.13;100.00
47330;BME280;33060;50.178;7.570;2023-09-18T06:34:08;96172.00;;;18.08;100.00
47330;BME280;33060;50.178;7.570;2023-09-18T06:36:35;96185.31;;;18.16;100.00
47330;BME280;33060;50.178;7.570;2023-09-18T06:39:01;96173.81;;;18.16;100.00
47330;BME280;33060;50.178;7.570;2023-09-18T06:41:28;96181.50;;;18.11;100.00
47330;BME280;33060;50.178;7.570;2023-09-18T06:43:55;96193.97;;;18.18;100.00
47330;BME280;33060;50.178;7.570;2023-09-18T06:46:23;96211.78;;;18.26;100.00
47330;BME280;33060;50.178;7.570;2023-09-18T06:48:50;96214.91;;;18.29;100.00
47330;BME280;33060;50.178;7.570;2023-09-18T06:51:18;96206.66;;;18.39;100.00
47330;BME280;33060;50.178;7.570;2023-09-18T06:53:55;96205.75;;;18.55;100.00
47330;BME280;33060;50.178;7.570;2023-09-18T06:56:24;96200.25;;;18.48;100.00
47330;BME280;33060;50.178;7.570;2023-09-18T06:58:51;96219.50;;;18.44;100.00
47330;BME280;33060;50.178;7.570;2023-09-18T07:01:19;96214.22;;;18.58;100.00
47330;BME280;33060;50.178;7.570;2023-09-18T07:03:46;96205.03;;;18.61;100.00
47330;BME280;33060;50.178;7.570;2023-09-18T07:06:15;96206.75;;;18.54;100.00
47330;BME280;33060;50.178;7.570;2023-09-18T07:08:48;96211.25;;;18.53;100.00
47330;BME280;33060;50.178;7.570;2023-09-18T07:11:18;96226.63;;;18.51;100.00
47330;BME280;33060;50.178;7.570;2023-09-18T07:13:45;96217.72;;;18.36;100.00
47330;BME280;33060;50.178;7.570;2023-09-18T07:16:12;96216.41;;;18.55;100.00
47330;BME280;33060;50.178;7.570;2023-09-18T07:18:39;96228.56;;;18.57;100.00
47330;BME280;33060;50.178;7.570;2023-09-18T07:21:06;96246.56;;;18.63;100.00
47330;BME280;33060;50.178;7.570;2023-09-18T07:23:33;96256.47;;;18.55;100.00
47330;BME280;33060;50.178;7.570;2023-09-18T07:26:03;96250.44;;;18.61;100.00
47330;BME280;33060;50.178;7.570;2023-09-18T07:28:30;96251.31;;;18.53;100.00
47330;BME280;33060;50.178;7.570;2023-09-18T07:30:56;96245.84;;;18.47;100.00
47330;BME280;33060;50.178;7.570;2023-09-18T07:33:23;96240.97;;;18.50;100.00
47330;BME280;33060;50.178;7.570;2023-09-18T07:35:50;96235.47;;;18.52;100.00
47330;BME280;33060;50.178;7.570;2023-09-18T07:38:19;96230.66;;;18.78;100.00
47330;BME280;33060;50.178;7.570;2023-09-18T07:40:46;96222.13;;;18.75;100.00
47330;BME280;33060;50.178;7.570;2023-09-18T07:43:13;96227.56;;;18.89;100.00
47330;BME280;33060;50.178;7.570;2023-09-18T07:45:40;96229.91;;;18.84;100.00
47330;BME280;33060;50.178;7.570;2023-09-18T07:48:07;96246.94;;;19.06;100.00
47330;BME280;33060;50.178;7.570;2023-09-18T07:50:35;96250.94;;;18.87;100.00
47330;BME280;33060;50.178;7.570;2023-09-18T07:53:02;96243.66;;;18.81;100.00
47330;BME280;33060;50.178;7.570;2023-09-18T07:55:29;96251.97;;;18.86;100.00
47330;BME280;33060;50.178;7.570;2023-09-18T07:57:56;96265.47;;;18.85;100.00
47330;BME280;33060;50.178;7.570;2023-09-18T08:00:24;96255.75;;;18.92;100.00
47330;BME280;33060;50.178;7.570;2023-09-18T08:02:55;96252.88;;;18.93;100.00
47330;BME280;33060;50.178;7.570;2023-09-18T08:05:25;96253.38;;;18.97;100.00
47330;BME280;33060;50.178;7.570;2023-09-18T08:07:54;96261.59;;;18.96;100.00
47330;BME280;33060;50.178;7.570;2023-09-18T08:10:25;96265.34;;;19.01;100.00
47330;BME280;33060;50.178;7.570;2023-09-18T08:12:52;96276.94;;;19.16;100.00
47330;BME280;33060;50.178;7.570;2023-09-18T08:15:19;96279.63;;;18.93;100.00
47330;BME280;33060;50.178;7.570;2023-09-18T08:17:47;96292.19;;;18.85;100.00
47330;BME280;33060;50.178;7.570;2023-09-18T08:20:16;96291.22;;;18.86;100.00
47330;BME280;33060;50.178;7.570;2023-09-18T08:22:43;96280.69;;;18.84;100.00
47330;BME280;33060;50.178;7.570;2023-09-18T08:25:12;96282.38;;;18.85;100.00
47330;BME280;33060;50.178;7.570;2023-09-18T08:27:39;96275.78;;;18.96;100.00
47330;BME280;33060;50.178;7.570;2023-09-18T08:30:12;96268.72;;;19.18;100.00
47330;BME280;33060;50.178;7.570;2023-09-18T08:32:41;96282.22;;;19.02;100.00
47330;BME280;33060;50.178;7.570;2023-09-18T08:35:09;96292.69;;;19.11;100.00
47330;BME280;33060;50.178;7.570;2023-09-18T08:37:36;96296.66;;;19.15;100.00
47330;BME280;33060;50.178;7.570;2023-09-18T08:40:03;96291.38;;;19.07;100.00
47330;BME280;33060;50.178;7.570;2023-09-18T08:42:40;96294.31;;;18.98;100.00
47330;BME280;33060;50.178;7.570;2023-09-18T08:45:08;96292.63;;;18.97;100.00
47330;BME280;33060;50.178;7.570;2023-09-18T08:47:38;96292.28;;;19.00;100.00
47330;BME280;33060;50.178;7.570;2023-09-18T08:50:08;96296.25;;;19.04;100.00
47330;BME280;33060;50.178;7.570;2023-09-18T08:52:36;96293.53;;;19.12;100.00
47330;BME280;33060;50.178;7.570;2023-09-18T08:55:04;96291.25;;;19.01;100.00
47330;BME280;33060;50.178;7.570;2023-09-18T08:57:34;96299.88;;;19.11;100.00
47330;BME280;33060;50.178;7.570;2023-09-18T09:00:03;96308.84;;;19.18;100.00
47330;BME280;33060;50.178;7.570;2023-09-18T09:02:34;96296.34;;;19.10;100.00
47330;BME280;33060;50.178;7.570;2023-09-18T09:05:02;96299.59;;;19.06;100.00
47330;BME280;33060;50.178;7.570;2023-09-18T09:07:29;96298.50;;;19.15;100.00
47330;BME280;33060;50.178;7.570;2023-09-18T09:09:57;96309.50;;;19.20;100.00
47330;BME280;33060;50.178;7.570;2023-09-18T09:12:51;96311.56;;;19.10;100.00
47330;BME280;33060;50.178;7.570;2023-09-18T09:15:22;96312.34;;;19.18;100.00
47330;BME280;33060;50.178;7.570;2023-09-18T09:17:50;96316.97;;;19.02;100.00
47330;BME280;33060;50.178;7.570;2023-09-18T09:20:17;96319.78;;;19.08;100.00
47330;BME280;33060;50.178;7.570;2023-09-18T09:22:45;96322.50;;;19.00;100.00
47330;BME280;33060;50.178;7.570;2023-09-18T09:25:22;96312.75;;;19.07;100.00
47330;BME280;33060;50.178;7.570;2023-09-18T09:27:50;96317.03;;;18.93;100.00
47330;BME280;33060;50.178;7.570;2023-09-18T09:30:21;96315.31;;;19.01;100.00
47330;BME280;33060;50.178;7.570;2023-09-18T09:32:49;96298.97;;;19.18;100.00
47330;BME280;33060;50.178;7.570;2023-09-18T09:35:25;96309.50;;;19.20;100.00
47330;BME280;33060;50.178;7.570;2023-09-18T09:38:00;96315.44;;;19.07;100.00
47330;BME280;33060;50.178;7.570;2023-09-18T09:40:29;96314.09;;;19.11;100.00
47330;BME280;33060;50.178;7.570;2023-09-18T09:42:57;96320.97;;;19.06;100.00
47330;BME280;33060;50.178;7.570;2023-09-18T09:45:29;96338.25;;;18.95;100.00
47330;BME280;33060;50.178;7.570;2023-09-18T09:47:57;96333.97;;;18.86;100.00
47330;BME280;33060;50.178;7.570;2023-09-18T09:50:24;96332.06;;;18.95;100.00
47330;BME280;33060;50.178;7.570;2023-09-18T09:52:54;96329.63;;;19.08;100.00
47330;BME280;33060;50.178;7.570;2023-09-18T09:55:33;96332.91;;;19.18;100.00
47330;BME280;33060;50.178;7.570;2023-09-18T09:58:03;96333.44;;;19.13;100.00
47330;BME280;33060;50.178;7.570;2023-09-18T10:00:36;96332.31;;;19.08;100.00
47330;BME280;33060;50.178;7.570;2023-09-18T10:03:13;96320.53;;;19.17;100.00
47330;BME280;33060;50.178;7.570;2023-09-18T10:05:43;96335.53;;;19.03;100.00
47330;BME280;33060;50.178;7.570;2023-09-18T10:10:48;96329.84;;;19.44;100.00
47330;BME280;33060;50.178;7.570;2023-09-18T10:15:45;96339.25;;;19.17;100.00
47330;BME280;33060;50.178;7.570;2023-09-18T10:18:27;96343.91;;;19.23;100.00
47330;BME280;33060;50.178;7.570;2023-09-18T10:24:07;96353.84;;;19.37;100.00
47330;BME280;33060;50.178;7.570;2023-09-18T10:26:47;96360.69;;;19.09;100.00
47330;BME280;33060;50.178;7.570;2023-09-18T10:29:18;96369.09;;;19.06;100.00
47330;BME280;33060;50.178;7.570;2023-09-18T10:31:46;96347.59;;;19.22;100.00
47330;BME280;33060;50.178;7.570;2023-09-18T10:34:13;96356.19;;;19.32;100.00
47330;BME280;33060;50.178;7.570;2023-09-18T10:36:42;96342.75;;;19.63;100.00
47330;BME280;33060;50.178;7.570;2023-09-18T10:39:10;96327.44;;;19.57;100.00
47330;BME280;33060;50.178;7.570;2023-09-18T10:41:39;96349.44;;;19.82;100.00
47330;BME280;33060;50.178;7.570;2023-09-18T10:44:08;96329.78;;;20.04;100.00
47330;BME280;33060;50.178;7.570;2023-09-18T10:46:37;96334.06;;;19.99;100.00
47330;BME280;33060;50.178;7.570;2023-09-18T10:49:04;96332.13;;;20.08;100.00
47330;BME280;33060;50.178;7.570;2023-09-18T10:51:32;96325.00;;;20.00;100.00
47330;BME280;33060;50.178;7.570;2023-09-18T10:54:03;96327.59;;;20.08;100.00
47330;BME280;33060;50.178;7.570;2023-09-18T10:56:31;96320.09;;;20.63;100.00
47330;BME280;33060;50.178;7.570;2023-09-18T10:59:00;96334.78;;;20.37;100.00
47330;BME280;33060;50.178;7.570;2023-09-18T11:01:28;96335.78;;;20.36;100.00
47330;BME280;33060;50.178;7.570;2023-09-18T11:04:00;96329.88;;;20.41;100.00
47330;BME280;33060;50.178;7.570;2023-09-18T11:06:28;96325.00;;;20.00;100.00
47330;BME280;33060;50.178;7.570;2023-09-18T11:09:07;96323.78;;;20.32;100.00
47330;BME280;33060;50.178;7.570;2023-09-18T11:11:34;96312.22;;;20.31;100.00
47330;BME280;33060;50.178;7.570;2023-09-18T11:14:02;96308.44;;;20.41;100.00
47330;BME280;33060;50.178;7.570;2023-09-18T11:16:35;96304.28;;;20.89;100.00
47330;BME280;33060;50.178;7.570;2023-09-18T11:19:11;96308.06;;;20.58;100.00
47330;BME280;33060;50.178;7.570;2023-09-18T11:21:39;96293.06;;;21.00;100.00
47330;BME280;33060;50.178;7.570;2023-09-18T11:24:20;96296.84;;;21.06;100.00
47330;BME280;33060;50.178;7.570;2023-09-18T11:26:49;96302.06;;;21.14;100.00
47330;BME280;33060;50.178;7.570;2023-09-18T11:29:21;96299.84;;;21.17;100.00
47330;BME280;33060;50.178;7.570;2023-09-18T11:34:25;96289.34;;;21.65;98.40
47330;BME280;33060;50.178;7.570;2023-09-18T11:36:55;96285.81;;;21.93;95.69
47330;BME280;33060;50.178;7.570;2023-09-18T11:39:39;96297.19;;;21.67;94.55
47330;BME280;33060;50.178;7.570;2023-09-18T11:42:11;96290.84;;;21.47;94.50
47330;BME280;33060;50.178;7.570;2023-09-18T11:44:42;96296.03;;;21.27;97.56
47330;BME280;33060;50.178;7.570;2023-09-18T11:47:18;96298.13;;;21.31;95.49
47330;BME280;33060;50.178;7.570;2023-09-18T11:52:22;96301.47;;;21.61;94.86
47330;BME280;33060;50.178;7.570;2023-09-18T11:54:49;96303.38;;;21.67;93.73
47330;BME280;33060;50.178;7.570;2023-09-18T11:57:18;96310.63;;;21.67;94.87
47330;BME280;33060;50.178;7.570;2023-09-18T11:59:46;96311.72;;;21.79;91.42
47330;BME280;33060;50.178;7.570;2023-09-18T12:02:24;96320.66;;;21.15;96.66
47330;BME280;33060;50.178;7.570;2023-09-18T12:04:55;96318.97;;;21.29;95.34
47330;BME280;33060;50.178;7.570;2023-09-18T12:07:22;96311.63;;;21.38;96.96
47330;BME280;33060;50.178;7.570;2023-09-18T12:09:49;96311.75;;;21.30;94.50
47330;BME280;33060;50.178;7.570;2023-09-18T12:12:16;96316.19;;;21.44;93.24
47330;BME280;33060;50.178;7.570;2023-09-18T12:14:44;96323.69;;;21.27;93.78
47330;BME280;33060;50.178;7.570;2023-09-18T12:17:15;96319.69;;;21.23;93.54
47330;BME280;33060;50.178;7.570;2023-09-18T12:19:54;96301.03;;;21.30;94.40
47330;BME280;33060;50.178;7.570;2023-09-18T12:22:26;96322.47;;;21.30;94.34
47330;BME280;33060;50.178;7.570;2023-09-18T12:24:53;96313.16;;;21.75;92.10
47330;BME280;33060;50.178;7.570;2023-09-18T12:27:21;96302.97;;;21.70;91.86
47330;BME280;33060;50.178;7.570;2023-09-18T12:29:47;96307.19;;;21.80;87.65
47330;BME280;33060;50.178;7.570;2023-09-18T12:32:14;96303.75;;;22.20;86.52
47330;BME280;33060;50.178;7.570;2023-09-18T12:34:41;96302.88;;;22.13;86.49
47330;BME280;33060;50.178;7.570;2023-09-18T12:37:12;96293.59;;;21.88;85.95
47330;BME280;33060;50.178;7.570;2023-09-18T12:39:39;96285.78;;;21.58;87.88
47330;BME280;33060;50.178;7.570;2023-09-18T12:42:06;96294.22;;;21.83;86.06
47330;BME280;33060;50.178;7.570;2023-09-18T12:44:33;96284.31;;;21.84;83.59
47330;BME280;33060;50.178;7.570;2023-09-18T12:47:00;96282.78;;;21.75;81.85
47330;BME280;33060;50.178;7.570;2023-09-18T12:49:30;96289.63;;;21.77;83.36
47330;BME280;33060;50.178;7.570;2023-09-18T12:52:00;96278.69;;;21.79;80.35
47330;BME280;33060;50.178;7.570;2023-09-18T12:54:41;96291.13;;;21.58;79.76
47330;BME280;33060;50.178;7.570;2023-09-18T12:57:09;96300.78;;;21.53;81.61
47330;BME280;33060;50.178;7.570;2023-09-18T12:59:37;96294.34;;;21.75;80.90
47330;BME280;33060;50.178;7.570;2023-09-18T13:02:05;96299.06;;;22.01;81.26
47330;BME280;33060;50.178;7.570;2023-09-18T13:04:34;96283.00;;;21.73;81.98
47330;BME280;33060;50.178;7.570;2023-09-18T13:07:10;96290.31;;;21.58;80.96
47330;BME280;33060;50.178;7.570;2023-09-18T13:09:39;96291.22;;;22.06;81.14
47330;BME280;33060;50.178;7.570;2023-09-18T13:12:07;96275.47;;;22.24;79.70
47330;BME280;33060;50.178;7.570;2023-09-18T13:15:00;96268.88;;;22.27;78.89
47330;BME280;33060;50.178;7.570;2023-09-18T13:17:41;96259.22;;;22.46;80.40